createdAt,value
2023-03-29T00:01:34.714Z,59
2023-03-29T00:04:04.745Z,59
2023-03-29T00:06:35.225Z,60
2023-03-29T00:09:06.360Z,59
2023-03-29T00:11:36.604Z,59
2023-03-29T00:14:07.069Z,59
2023-03-29T00:16:37.222Z,59
2023-03-29T00:19:08.214Z,58
2023-03-29T00:21:38.711Z,59
2023-03-29T00:24:09.506Z,59
2023-03-29T00:26:40.307Z,59
2023-03-29T00:29:10.524Z,59
2023-03-29T00:31:41.298Z,59
2023-03-29T00:34:11.846Z,59
2023-03-29T00:36:42.327Z,59
2023-03-29T00:39:12.576Z,59
2023-03-29T00:41:43.792Z,59
2023-03-29T00:44:14.078Z,59
2023-03-29T00:46:44.305Z,60
2023-03-29T00:49:14.582Z,60
2023-03-29T00:51:44.705Z,60
2023-03-29T00:54:15.449Z,60
2023-03-29T00:56:46.614Z,60
2023-03-29T00:59:17.275Z,60
2023-03-29T01:01:47.884Z,60
2023-03-29T01:04:18.664Z,59
2023-03-29T01:06:48.730Z,59
2023-03-29T01:09:19.525Z,60
2023-03-29T01:11:49.728Z,59
2023-03-29T01:14:20.392Z,60
2023-03-29T01:16:50.225Z,60
2023-03-29T01:19:20.155Z,59
2023-03-29T01:21:50.898Z,59
2023-03-29T01:24:22.606Z,59
2023-03-29T01:26:52.731Z,60
2023-03-29T01:29:23.799Z,60
2023-03-29T01:31:54.502Z,60
2023-03-29T01:34:25.192Z,60
2023-03-29T01:36:55.503Z,60
2023-03-29T01:39:26.071Z,60
2023-03-29T01:41:56.395Z,60
2023-03-29T01:44:27.545Z,60
2023-03-29T01:46:57.901Z,60
2023-03-29T01:49:28.693Z,60
2023-03-29T01:51:59.193Z,60
2023-03-29T01:54:27.925Z,60
2023-03-29T01:56:58.666Z,60
2023-03-29T01:59:29.097Z,60
2023-03-29T02:01:59.604Z,60
2023-03-29T02:04:29.496Z,60
2023-03-29T02:07:00.386Z,60
2023-03-29T02:09:31.329Z,60
2023-03-29T02:12:01.435Z,60
2023-03-29T02:14:31.538Z,60
2023-03-29T02:17:03.372Z,60
2023-03-29T02:19:34.992Z,60
2023-03-29T02:22:05.381Z,60
2023-03-29T02:24:35.912Z,61
2023-03-29T02:27:06.715Z,60
2023-03-29T02:29:36.947Z,61
2023-03-29T02:32:07.156Z,61
2023-03-29T02:34:37.395Z,61
2023-03-29T02:37:08.213Z,60
2023-03-29T02:39:38.924Z,61
2023-03-29T02:42:09.135Z,61
2023-03-29T02:44:39.577Z,61
2023-03-29T02:47:09.911Z,61
2023-03-29T02:49:40.440Z,61
2023-03-29T02:52:10.827Z,60
2023-03-29T02:54:41.894Z,61
2023-03-29T02:57:12.103Z,61
2023-03-29T02:59:42.513Z,61
2023-03-29T03:02:12.896Z,61
2023-03-29T03:04:43.280Z,61
2023-03-29T03:07:13.708Z,61
2023-03-29T03:09:44.067Z,61
2023-03-29T03:12:14.336Z,61
2023-03-29T03:14:44.676Z,61
2023-03-29T03:17:15.499Z,61
2023-03-29T03:19:46.060Z,61
2023-03-29T03:22:16.324Z,61
2023-03-29T03:24:46.782Z,61
2023-03-29T03:27:17.293Z,61
2023-03-29T03:29:47.862Z,61
2023-03-29T03:32:18.286Z,61
2023-03-29T03:34:49.228Z,61
2023-03-29T03:37:19.736Z,60
2023-03-29T03:39:50.385Z,60
2023-03-29T03:42:20.629Z,60
2023-03-29T03:44:51.975Z,61
2023-03-29T03:47:22.306Z,61
2023-03-29T03:49:52.739Z,60
2023-03-29T03:52:25.037Z,60
2023-03-29T03:54:56.007Z,60
2023-03-29T03:57:26.407Z,61
2023-03-29T03:59:57.302Z,61
2023-03-29T04:02:28.404Z,61
2023-03-29T04:05:01.097Z,61
2023-03-29T04:07:31.382Z,61
2023-03-29T04:10:02.088Z,61
2023-03-29T04:12:32.594Z,61
2023-03-29T04:15:03.256Z,60
2023-03-29T04:17:34.114Z,61
2023-03-29T04:20:04.572Z,61
2023-03-29T04:22:36.764Z,61
2023-03-29T04:25:08.256Z,61
2023-03-29T04:27:38.498Z,61
2023-03-29T04:30:08.777Z,61
2023-03-29T04:32:39.477Z,61
2023-03-29T04:35:09.804Z,61
2023-03-29T04:37:41.059Z,61
2023-03-29T04:40:11.517Z,60
2023-03-29T04:42:42.684Z,60
2023-03-29T04:45:13.429Z,60
2023-03-29T04:47:44.673Z,60
2023-03-29T04:50:15.695Z,60
2023-03-29T04:52:45.929Z,60
2023-03-29T04:55:16.511Z,59
2023-03-29T04:57:47.288Z,59
2023-03-29T05:00:18.717Z,60
2023-03-29T05:02:49.478Z,59
2023-03-29T05:05:19.970Z,59
2023-03-29T05:07:49.906Z,59
2023-03-29T05:10:20.203Z,59
2023-03-29T05:12:50.790Z,58
2023-03-29T05:15:20.535Z,58
2023-03-29T05:17:54.291Z,58
2023-03-29T05:20:25.431Z,58
2023-03-29T05:22:55.653Z,58
2023-03-29T05:25:26.072Z,58
2023-03-29T05:27:57.380Z,58
2023-03-29T05:30:27.973Z,58
2023-03-29T05:32:58.154Z,58
2023-03-29T05:35:28.355Z,58
2023-03-29T05:37:58.301Z,57
2023-03-29T05:40:29.117Z,57
2023-03-29T05:43:06.150Z,57
2023-03-29T05:45:37.252Z,56
2023-03-29T05:48:07.821Z,56
2023-03-29T05:50:38.118Z,56
2023-03-29T05:53:18.080Z,56
2023-03-29T05:55:47.314Z,55
2023-03-29T05:58:17.309Z,54
2023-03-29T06:00:48.501Z,54
2023-03-29T06:05:57.928Z,53
2023-03-29T06:08:28.855Z,53
2023-03-29T06:10:59.045Z,52
2023-03-29T06:13:29.322Z,53
2023-03-29T06:15:59.854Z,51
2023-03-29T06:18:29.945Z,51
2023-03-29T06:21:00.697Z,51
2023-03-29T06:23:30.695Z,51
2023-03-29T06:26:01.140Z,51
2023-03-29T06:28:32.108Z,51
2023-03-29T06:31:03.700Z,50
2023-03-29T06:33:32.657Z,50
2023-03-29T06:36:04.623Z,49
2023-03-29T06:38:34.849Z,49
2023-03-29T06:41:05.865Z,49
2023-03-29T06:43:40.796Z,48
2023-03-29T06:46:11.284Z,49
2023-03-29T06:48:41.853Z,47
2023-03-29T06:51:12.282Z,47
2023-03-29T06:53:43.506Z,46
2023-03-29T06:56:13.907Z,46
2023-03-29T06:58:48.089Z,45
2023-03-29T07:01:18.024Z,45
2023-03-29T07:03:48.417Z,45
2023-03-29T07:06:18.668Z,45
2023-03-29T07:08:48.613Z,45
2023-03-29T07:11:17.549Z,46
2023-03-29T07:13:47.699Z,45
2023-03-29T07:16:18.009Z,44
2023-03-29T07:18:47.898Z,44
2023-03-29T07:21:16.800Z,44
2023-03-29T07:23:47.162Z,44
2023-03-29T07:26:28.504Z,44
2023-03-29T07:28:48.164Z,44
2023-03-29T07:31:19.129Z,43
2023-03-29T07:33:52.407Z,43
2023-03-29T07:36:23.087Z,43
2023-03-29T07:38:55.192Z,42
2023-03-29T07:41:24.140Z,43
2023-03-29T07:44:01.437Z,42
2023-03-29T07:46:31.029Z,42
2023-03-29T07:49:01.248Z,42
2023-03-29T07:51:31.462Z,42
2023-03-29T07:54:01.956Z,41
2023-03-29T07:56:32.095Z,42
2023-03-29T07:59:02.233Z,41
2023-03-29T08:01:33.440Z,41
2023-03-29T08:04:04.508Z,40
2023-03-29T08:06:34.891Z,41
2023-03-29T08:09:09.122Z,41
2023-03-29T08:11:39.442Z,40
2023-03-29T08:14:10.073Z,41
2023-03-29T08:16:42.301Z,41
2023-03-29T08:19:12.939Z,40
2023-03-29T08:21:44.747Z,41
2023-03-29T08:24:15.689Z,39
2023-03-29T08:26:54.037Z,39
2023-03-29T08:29:24.999Z,39
2023-03-29T08:31:59.637Z,40
2023-03-29T08:34:29.880Z,40
2023-03-29T08:37:00.034Z,40
2023-03-29T08:39:30.569Z,39
2023-03-29T08:42:00.472Z,39
2023-03-29T08:44:30.483Z,39
2023-03-29T08:47:01.070Z,39
2023-03-29T08:49:34.602Z,39
2023-03-29T08:52:06.146Z,40
2023-03-29T08:54:36.842Z,39
2023-03-29T08:57:08.075Z,38
2023-03-29T08:59:41.797Z,39
2023-03-29T09:02:18.348Z,39
2023-03-29T09:04:48.799Z,39
2023-03-29T09:07:20.494Z,37
2023-03-29T09:09:52.264Z,38
2023-03-29T09:12:24.259Z,37
2023-03-29T09:14:54.586Z,37
2023-03-29T09:17:25.433Z,38
2023-03-29T09:19:57.718Z,37
2023-03-29T09:22:28.621Z,37
2023-03-29T09:25:01.198Z,37
2023-03-29T09:27:33.106Z,37
2023-03-29T09:30:03.590Z,36
2023-03-29T09:32:33.682Z,36
2023-03-29T09:35:04.498Z,37
2023-03-29T09:37:35.061Z,37
2023-03-29T09:40:05.841Z,37
2023-03-29T09:42:36.603Z,37
2023-03-29T09:45:08.231Z,37
2023-03-29T09:47:39.296Z,37
2023-03-29T09:50:16.799Z,37
2023-03-29T09:52:40.673Z,36
2023-03-29T09:55:10.991Z,36
2023-03-29T09:57:41.606Z,37
2023-03-29T10:00:11.859Z,36
2023-03-29T10:02:42.859Z,35
2023-03-29T10:05:13.285Z,35
2023-03-29T10:07:43.659Z,35
2023-03-29T10:10:14.868Z,34
2023-03-29T10:12:46.535Z,35
2023-03-29T10:15:28.953Z,35
2023-03-29T10:17:50.476Z,35
2023-03-29T10:20:22.165Z,36
2023-03-29T10:22:54.146Z,36
2023-03-29T10:25:27.003Z,35
2023-03-29T10:27:58.836Z,35
2023-03-29T10:30:31.720Z,35
2023-03-29T10:33:03.828Z,35
2023-03-29T10:35:35.341Z,35
2023-03-29T10:38:08.017Z,34
2023-03-29T10:40:39.907Z,35
2023-03-29T10:43:11.737Z,34
2023-03-29T10:45:43.637Z,34
2023-03-29T10:48:15.191Z,34
2023-03-29T10:50:47.010Z,34
2023-03-29T10:53:18.874Z,34
2023-03-29T10:55:51.825Z,35
2023-03-29T10:58:23.625Z,35
2023-03-29T11:00:55.249Z,34
2023-03-29T11:03:27.443Z,35
2023-03-29T11:06:00.023Z,35
2023-03-29T11:08:32.588Z,34
2023-03-29T11:11:08.556Z,34
2023-03-29T11:13:40.919Z,34
2023-03-29T11:16:14.856Z,35
2023-03-29T11:18:46.585Z,35
2023-03-29T11:21:18.342Z,34
2023-03-29T11:23:50.003Z,35
2023-03-29T11:26:24.524Z,35
2023-03-29T11:31:55.228Z,34
2023-03-29T11:34:27.030Z,37
2023-03-29T11:36:58.690Z,39
2023-03-29T11:39:30.445Z,35
2023-03-29T11:42:02.682Z,35
2023-03-29T11:47:25.199Z,35
2023-03-29T11:49:58.792Z,35
2023-03-29T11:52:29.326Z,34
2023-03-29T11:55:04.620Z,35
2023-03-29T11:57:42.595Z,34
2023-03-29T12:00:18.281Z,35
2023-03-29T12:02:51.436Z,34
2023-03-29T12:05:28.981Z,34
2023-03-29T12:08:05.528Z,34
2023-03-29T12:10:40.591Z,34
2023-03-29T12:13:16.596Z,34
2023-03-29T12:15:53.229Z,34
2023-03-29T12:18:33.068Z,35
2023-03-29T12:21:12.411Z,35
2023-03-29T12:23:55.424Z,36
2023-03-29T12:26:26.483Z,37
2023-03-29T12:28:59.584Z,37
2023-03-29T12:31:28.864Z,36
2023-03-29T12:34:00.883Z,36
2023-03-29T12:36:38.162Z,34
2023-03-29T12:39:10.376Z,34
2023-03-29T12:41:45.147Z,34
2023-03-29T12:44:15.091Z,34
2023-03-29T12:46:48.760Z,34
2023-03-29T12:49:29.132Z,33
2023-03-29T12:52:02.135Z,34
2023-03-29T12:54:38.877Z,34
2023-03-29T12:57:10.309Z,33
2023-03-29T13:02:33.552Z,33
2023-03-29T13:05:08.232Z,33
2023-03-29T13:10:33.217Z,33
2023-03-29T13:13:02.746Z,34
2023-03-29T13:18:39.388Z,33
2023-03-29T13:26:45.487Z,33
2023-03-29T13:32:08.352Z,32
2023-03-29T13:34:39.284Z,32
2023-03-29T13:39:45.247Z,32
2023-03-29T13:42:15.461Z,32
2023-03-29T13:44:45.957Z,32
2023-03-29T13:47:19.119Z,31
2023-03-29T13:49:51.218Z,32
2023-03-29T13:52:19.598Z,31
2023-03-29T13:54:50.617Z,32
2023-03-29T13:57:32.607Z,32
2023-03-29T14:00:03.022Z,31
2023-03-29T14:05:09.166Z,31
2023-03-29T14:10:16.794Z,32
2023-03-29T14:12:54.331Z,33
2023-03-29T14:15:25.349Z,33
2023-03-29T14:17:56.271Z,33
2023-03-29T14:20:26.030Z,32
2023-03-29T14:22:56.227Z,33
2023-03-29T14:25:26.628Z,33
2023-03-29T14:27:58.109Z,33
2023-03-29T14:30:30.906Z,33
2023-03-29T14:33:01.592Z,33
2023-03-29T14:35:31.803Z,33
2023-03-29T14:38:11.632Z,33
2023-03-29T14:40:42.261Z,33
2023-03-29T14:43:15.561Z,34
2023-03-29T14:45:46.011Z,33
2023-03-29T14:48:17.328Z,33
2023-03-29T14:50:51.509Z,33
2023-03-29T14:53:27.931Z,33
2023-03-29T14:56:00.253Z,33
2023-03-29T14:58:30.185Z,34
2023-03-29T15:01:14.333Z,34
2023-03-29T15:03:55.045Z,33
2023-03-29T15:06:33.241Z,33
2023-03-29T15:09:06.378Z,34
2023-03-29T15:11:34.454Z,34
2023-03-29T15:14:04.087Z,34
2023-03-29T15:16:35.523Z,34
2023-03-29T15:19:06.494Z,34
2023-03-29T15:21:38.011Z,34
2023-03-29T15:24:09.532Z,34
2023-03-29T15:26:43.342Z,33
2023-03-29T15:29:13.647Z,33
2023-03-29T15:31:42.783Z,34
2023-03-29T15:34:14.107Z,34
2023-03-29T15:36:47.595Z,34
2023-03-29T15:39:19.130Z,34
2023-03-29T15:41:49.299Z,33
2023-03-29T15:44:21.764Z,33
2023-03-29T15:46:54.367Z,34
2023-03-29T15:49:25.714Z,34
2023-03-29T15:51:56.157Z,35
2023-03-29T15:54:28.464Z,34
2023-03-29T15:57:02.155Z,35
2023-03-29T15:59:33.117Z,35
2023-03-29T16:02:03.173Z,34
2023-03-29T16:04:33.505Z,34
2023-03-29T16:07:03.930Z,35
2023-03-29T16:09:35.837Z,35
2023-03-29T16:12:06.490Z,35
2023-03-29T16:14:36.740Z,34
2023-03-29T16:17:08.864Z,35
2023-03-29T16:19:39.738Z,35
2023-03-29T16:22:11.196Z,35
2023-03-29T16:24:41.793Z,35
2023-03-29T16:27:12.014Z,36
2023-03-29T16:29:42.545Z,36
2023-03-29T16:32:12.886Z,36
2023-03-29T16:34:45.600Z,35
2023-03-29T16:37:21.058Z,36
2023-03-29T16:39:52.538Z,36
2023-03-29T16:42:24.960Z,35
2023-03-29T16:44:55.321Z,37
2023-03-29T16:47:26.259Z,36
2023-03-29T16:49:57.462Z,38
2023-03-29T16:52:36.611Z,36
2023-03-29T16:55:09.572Z,37
2023-03-29T16:57:40.040Z,37
2023-03-29T17:00:10.485Z,37
2023-03-29T17:02:40.848Z,38
2023-03-29T17:05:11.427Z,37
2023-03-29T17:07:47.120Z,39
2023-03-29T17:10:18.079Z,38
2023-03-29T17:12:50.270Z,39
2023-03-29T17:15:20.576Z,38
2023-03-29T17:17:50.719Z,37
2023-03-29T17:20:21.756Z,38
2023-03-29T17:22:53.305Z,38
2023-03-29T17:25:27.868Z,39
2023-03-29T17:27:58.611Z,39
2023-03-29T17:30:30.138Z,40
2023-03-29T17:33:00.500Z,39
2023-03-29T17:35:30.811Z,39
2023-03-29T17:38:04.819Z,39
2023-03-29T17:40:40.369Z,40
2023-03-29T17:43:10.340Z,39
2023-03-29T17:45:42.047Z,39
2023-03-29T17:48:12.157Z,40
2023-03-29T17:50:42.645Z,40
2023-03-29T17:53:13.400Z,40
2023-03-29T17:55:45.112Z,41
2023-03-29T17:58:16.761Z,40
2023-03-29T18:00:47.368Z,41
2023-03-29T18:03:17.042Z,40
2023-03-29T18:05:50.481Z,40
2023-03-29T18:08:22.875Z,40
2023-03-29T18:10:54.061Z,40
2023-03-29T18:13:24.559Z,40
2023-03-29T18:16:00.811Z,40
2023-03-29T18:18:30.973Z,40
2023-03-29T18:21:01.045Z,41
2023-03-29T18:23:34.551Z,41
2023-03-29T18:28:53.903Z,40
2023-03-29T18:31:23.626Z,40
2023-03-29T18:33:54.082Z,40
2023-03-29T18:36:39.436Z,41
2023-03-29T18:39:10.106Z,42
2023-03-29T18:41:46.758Z,42
2023-03-29T18:44:22.696Z,42
2023-03-29T18:47:00.857Z,41
2023-03-29T18:49:31.609Z,41
2023-03-29T18:52:19.411Z,41
2023-03-29T18:57:35.246Z,42
2023-03-29T19:00:07.312Z,43
2023-03-29T19:02:41.684Z,42
2023-03-29T19:05:22.558Z,42
2023-03-29T19:13:31.385Z,41
2023-03-29T19:16:06.953Z,42
2023-03-29T19:18:36.683Z,42
2023-03-29T19:21:06.468Z,43
2023-03-29T19:23:36.432Z,43
2023-03-29T19:26:10.792Z,43
2023-03-29T19:28:41.115Z,43
2023-03-29T19:31:11.458Z,42
2023-03-29T19:33:41.889Z,42
2023-03-29T19:36:12.073Z,42
2023-03-29T19:46:53.675Z,43
2023-03-29T19:58:06.602Z,43
2023-03-29T20:00:36.810Z,43
2023-03-29T20:03:07.142Z,42
2023-03-29T20:05:41.476Z,41
2023-03-29T20:08:11.580Z,42
2023-03-29T20:10:41.719Z,42
2023-03-29T20:13:27.819Z,42
2023-03-29T20:15:59.339Z,43
2023-03-29T20:18:32.876Z,42
2023-03-29T20:21:03.097Z,42
2023-03-29T20:26:09.332Z,42
2023-03-29T20:28:43.479Z,42
2023-03-29T20:31:13.811Z,42
2023-03-29T20:33:44.283Z,42
2023-03-29T20:36:14.791Z,42
2023-03-29T20:38:45.215Z,42
2023-03-29T20:41:15.412Z,42
2023-03-29T20:43:45.575Z,42
2023-03-29T20:46:15.957Z,43
2023-03-29T20:48:46.325Z,43
2023-03-29T20:51:15.010Z,43
2023-03-29T20:53:45.463Z,43
2023-03-29T20:56:15.483Z,44
2023-03-29T20:58:46.426Z,43
2023-03-29T21:01:16.591Z,43
2023-03-29T21:03:49.138Z,44
2023-03-29T21:06:19.307Z,43
2023-03-29T21:08:49.333Z,43
2023-03-29T21:11:19.624Z,42
2023-03-29T21:13:50.440Z,42
2023-03-29T21:16:21.044Z,42
2023-03-29T21:18:56.754Z,42
2023-03-29T21:21:26.863Z,42
2023-03-29T21:24:03.007Z,42
2023-03-29T21:26:33.326Z,42
2023-03-29T21:29:03.782Z,43
2023-03-29T21:31:32.614Z,43
2023-03-29T21:34:02.663Z,43
2023-03-29T21:36:33.723Z,43
2023-03-29T21:39:04.124Z,45
2023-03-29T21:41:34.698Z,45
2023-03-29T21:46:57.626Z,44
2023-03-29T21:49:27.539Z,42
2023-03-29T21:54:33.409Z,42
2023-03-29T21:57:04.156Z,43
2023-03-29T21:59:34.878Z,42
2023-03-29T22:02:05.645Z,43
2023-03-29T22:04:37.338Z,43
2023-03-29T22:07:06.541Z,43
2023-03-29T22:09:37.394Z,43
2023-03-29T22:12:08.212Z,43
2023-03-29T22:14:38.930Z,43
2023-03-29T22:17:09.501Z,43
2023-03-29T22:19:40.480Z,43
2023-03-29T22:22:10.940Z,43
2023-03-29T22:24:40.975Z,43
2023-03-29T22:29:47.610Z,44
2023-03-29T22:32:18.368Z,43
2023-03-29T22:34:48.470Z,43
2023-03-29T22:37:18.977Z,43
2023-03-29T22:39:55.001Z,43
2023-03-29T22:42:31.237Z,43
2023-03-29T22:45:10.801Z,43
2023-03-29T22:47:40.837Z,44
2023-03-29T22:50:11.955Z,45
2023-03-29T22:52:43.783Z,44
2023-03-29T22:55:13.639Z,44
2023-03-29T22:57:44.457Z,43
2023-03-29T23:00:15.188Z,43
2023-03-29T23:02:45.560Z,43
2023-03-29T23:05:16.173Z,43
2023-03-29T23:07:46.929Z,43
2023-03-29T23:10:17.768Z,43
2023-03-29T23:12:48.753Z,43
2023-03-29T23:15:19.321Z,44
2023-03-29T23:17:49.922Z,43
2023-03-29T23:23:06.812Z,43
2023-03-29T23:25:41.357Z,44
2023-03-29T23:28:11.957Z,44
2023-03-29T23:30:42.385Z,44
2023-03-29T23:33:11.537Z,44
2023-03-29T23:35:42.096Z,45
2023-03-29T23:38:12.539Z,45
2023-03-29T23:40:43.060Z,44
2023-03-29T23:43:17.217Z,45
2023-03-29T23:45:49.468Z,45
2023-03-29T23:48:20.144Z,45
2023-03-29T23:50:51.253Z,45
2023-03-29T23:53:22.099Z,45
2023-03-29T23:55:52.192Z,46
2023-03-29T23:58:22.385Z,46
